createdAt,value
2018-09-19T00:00:40.831Z,95431.89
2018-09-19T00:03:09.644Z,95428.37
2018-09-19T00:05:38.471Z,95427.52
2018-09-19T00:08:07.343Z,95431.98
2018-09-19T00:10:36.458Z,95426.92
2018-09-19T00:13:05.375Z,95428.52
2018-09-19T00:15:34.139Z,95425.60
2018-09-19T00:18:03.047Z,95434.19
2018-09-19T00:20:32.081Z,95436.95
2018-09-19T00:23:00.687Z,95433.77
2018-09-19T00:25:29.520Z,95438.00
2018-09-19T00:27:58.475Z,95432.69
2018-09-19T00:30:27.164Z,95429.80
2018-09-19T00:32:55.787Z,95429.92
2018-09-19T00:35:24.510Z,95431.19
2018-09-19T00:37:53.279Z,95432.36
2018-09-19T00:40:22.237Z,95437.44
2018-09-19T00:42:51.306Z,95441.94
2018-09-19T00:45:20.195Z,95431.97
2018-09-19T00:47:49.013Z,95445.44
2018-09-19T00:50:18.173Z,95441.44
2018-09-19T00:52:47.091Z,95445.78
2018-09-19T00:55:15.880Z,95443.17
2018-09-19T00:57:45.117Z,95443.09
2018-09-19T01:00:14.094Z,95434.48
2018-09-19T01:02:43.169Z,95433.38
2018-09-19T01:05:11.834Z,95435.94
2018-09-19T01:07:40.704Z,95441.77
2018-09-19T01:10:09.834Z,95431.45
2018-09-19T01:12:39.040Z,95436.52
2018-09-19T01:15:07.999Z,95439.16
2018-09-19T01:17:36.969Z,95431.39
2018-09-19T01:20:05.950Z,95435.68
2018-09-19T01:22:35.173Z,95435.39
2018-09-19T01:25:04.199Z,95434.69
2018-09-19T01:27:32.948Z,95428.75
2018-09-19T01:30:01.584Z,95431.52
2018-09-19T01:32:30.709Z,95428.59
2018-09-19T01:34:59.422Z,95432.92
2018-09-19T01:37:28.254Z,95428.77
2018-09-19T01:39:56.965Z,95435.87
2018-09-19T01:42:25.808Z,95427.91
2018-09-19T01:44:54.713Z,95423.61
2018-09-19T01:47:23.867Z,95431.11
2018-09-19T01:49:52.689Z,95421.00
2018-09-19T01:52:21.562Z,95423.29
2018-09-19T01:54:50.635Z,95423.36
2018-09-19T01:57:19.588Z,95423.05
2018-09-19T01:59:48.422Z,95429.68
2018-09-19T02:02:17.604Z,95431.38
2018-09-19T02:04:46.591Z,95433.16
2018-09-19T02:07:15.597Z,95425.23
2018-09-19T02:09:44.220Z,95426.16
2018-09-19T02:12:13.114Z,95427.40
2018-09-19T02:14:41.843Z,95432.48
2018-09-19T02:17:11.023Z,95428.63
2018-09-19T02:19:39.955Z,95432.12
2018-09-19T02:22:09.083Z,95432.41
2018-09-19T02:24:38.086Z,95429.42
2018-09-19T02:27:07.051Z,95434.17
2018-09-19T02:29:36.014Z,95430.60
2018-09-19T02:32:05.038Z,95427.92
2018-09-19T02:34:34.017Z,95427.84
2018-09-19T02:37:02.811Z,95426.95
2018-09-19T02:39:31.613Z,95426.96
2018-09-19T02:42:00.291Z,95435.62
2018-09-19T02:44:28.894Z,95433.77
2018-09-19T02:46:57.609Z,95432.97
2018-09-19T02:49:26.759Z,95428.86
2018-09-19T02:51:59.384Z,95435.61
2018-09-19T02:54:30.218Z,95435.64
2018-09-19T02:56:59.551Z,95438.84
2018-09-19T02:59:28.610Z,95434.91
2018-09-19T03:01:57.454Z,95431.73
2018-09-19T03:04:26.160Z,95434.45
2018-09-19T03:06:54.877Z,95437.06
2018-09-19T03:09:23.843Z,95437.03
2018-09-19T03:11:52.773Z,95442.91
2018-09-19T03:14:21.916Z,95436.98
2018-09-19T03:19:19.515Z,95442.87
2018-09-19T03:24:51.015Z,95440.25
2018-09-19T03:27:19.972Z,95437.31
2018-09-19T03:29:48.927Z,95435.08
2018-09-19T03:32:17.861Z,95439.15
2018-09-19T03:34:46.589Z,95438.13
2018-09-19T03:37:15.601Z,95441.83
2018-09-19T03:39:44.279Z,95440.64
2018-09-19T03:42:12.981Z,95443.05
2018-09-19T03:44:41.706Z,95444.46
2018-09-19T03:47:10.415Z,95437.97
2018-09-19T03:49:39.280Z,95441.16
2018-09-19T03:52:08.284Z,95442.12
2018-09-19T03:54:37.174Z,95428.84
2018-09-19T03:57:06.067Z,95435.19
2018-09-19T03:59:34.802Z,95432.38
2018-09-19T04:02:03.613Z,95434.27
2018-09-19T04:04:32.321Z,95435.48
2018-09-19T04:07:01.166Z,95436.73
2018-09-19T04:09:30.308Z,95436.30
2018-09-19T04:11:59.584Z,95437.64
2018-09-19T04:14:28.724Z,95434.41
2018-09-19T04:16:57.774Z,95433.02
2018-09-19T04:19:26.878Z,95438.03
2018-09-19T04:21:57.026Z,95439.74
2018-09-19T04:24:25.949Z,95440.83
2018-09-19T04:26:54.533Z,95441.59
2018-09-19T04:29:23.360Z,95443.44
2018-09-19T04:31:52.088Z,95442.91
2018-09-19T04:34:20.910Z,95440.67
2018-09-19T04:36:49.858Z,95445.59
2018-09-19T04:39:18.841Z,95158.91
2018-09-19T04:41:47.819Z,95450.31
2018-09-19T04:44:16.818Z,95447.31
2018-09-19T04:46:45.756Z,95446.38
2018-09-19T04:49:14.672Z,95451.33
2018-09-19T04:51:43.806Z,95457.27
2018-09-19T04:54:12.555Z,95459.00
2018-09-19T04:56:41.471Z,95457.93
2018-09-19T04:59:10.549Z,95458.28
2018-09-19T05:01:39.197Z,95461.19
2018-09-19T05:04:08.463Z,95463.06
2018-09-19T05:06:37.583Z,95465.97
2018-09-19T05:09:08.479Z,95469.23
2018-09-19T05:11:37.568Z,95463.59
2018-09-19T05:14:07.055Z,95459.60
2018-09-19T05:16:36.101Z,95453.47
2018-09-19T05:19:05.076Z,95456.09
2018-09-19T05:21:34.024Z,95458.42
2018-09-19T05:24:02.842Z,95459.05
2018-09-19T05:26:31.625Z,95455.69
2018-09-19T05:29:00.330Z,95459.65
2018-09-19T05:31:29.117Z,95454.34
2018-09-19T05:33:58.346Z,95455.31
2018-09-19T05:36:27.105Z,95454.97
2018-09-19T05:38:55.788Z,95455.08
2018-09-19T05:41:24.463Z,95460.63
2018-09-19T05:43:53.252Z,95457.86
2018-09-19T05:46:22.029Z,95465.78
2018-09-19T05:48:50.855Z,95462.73
2018-09-19T05:51:19.739Z,95465.13
2018-09-19T05:53:48.558Z,95461.13
2018-09-19T05:56:17.243Z,95466.94
2018-09-19T05:58:45.958Z,95462.64
2018-09-19T06:01:14.554Z,95466.87
2018-09-19T06:03:43.147Z,95475.36
2018-09-19T06:06:11.800Z,95475.27
2018-09-19T06:08:40.536Z,95476.82
2018-09-19T06:11:09.257Z,95477.89
2018-09-19T06:13:37.955Z,95480.56
2018-09-19T06:16:06.607Z,95474.88
2018-09-19T06:18:35.404Z,95480.28
2018-09-19T06:21:04.110Z,95478.58
2018-09-19T06:23:32.758Z,95480.01
2018-09-19T06:26:01.546Z,95482.95
2018-09-19T06:28:31.042Z,95480.69
2018-09-19T06:30:59.675Z,95475.17
2018-09-19T06:33:28.504Z,95475.46
2018-09-19T06:35:57.188Z,95482.12
2018-09-19T06:38:25.960Z,95471.86
2018-09-19T06:40:54.690Z,95472.39
2018-09-19T06:43:23.307Z,95474.27
2018-09-19T06:45:52.160Z,95472.17
2018-09-19T06:48:21.059Z,95477.19
2018-09-19T06:50:49.771Z,95473.00
2018-09-19T06:53:18.514Z,95476.00
2018-09-19T06:55:47.200Z,95467.56
2018-09-19T06:58:15.890Z,95473.64
2018-09-19T07:00:44.487Z,95472.33
2018-09-19T07:03:13.197Z,95475.48
2018-09-19T07:05:41.972Z,95476.27
2018-09-19T07:08:10.675Z,95481.04
2018-09-19T07:10:39.429Z,95476.56
2018-09-19T07:13:08.108Z,95484.20
2018-09-19T07:15:36.747Z,95487.64
2018-09-19T07:18:05.400Z,95493.18
2018-09-19T07:20:34.029Z,95487.11
2018-09-19T07:23:02.799Z,95491.57
2018-09-19T07:25:31.601Z,95496.02
2018-09-19T07:28:00.196Z,95494.91
2018-09-19T07:30:28.966Z,95493.55
2018-09-19T07:32:57.725Z,95493.49
2018-09-19T07:35:26.455Z,95499.27
2018-09-19T07:37:55.091Z,95492.98
2018-09-19T07:40:23.930Z,95497.14
2018-09-19T07:42:52.610Z,95487.89
2018-09-19T07:45:21.262Z,95494.88
2018-09-19T07:47:49.966Z,95489.05
2018-09-19T07:50:18.754Z,95488.13
2018-09-19T07:52:47.503Z,95489.44
2018-09-19T07:55:16.262Z,95492.02
2018-09-19T07:57:44.803Z,95491.09
2018-09-19T08:00:13.420Z,95478.09
2018-09-19T08:02:42.054Z,95480.23
2018-09-19T08:05:10.787Z,95477.30
2018-09-19T08:07:39.387Z,95472.13
2018-09-19T08:10:08.066Z,95477.38
2018-09-19T08:12:36.755Z,95478.83
2018-09-19T08:15:05.595Z,95472.30
2018-09-19T08:17:34.338Z,95474.23
2018-09-19T08:20:02.971Z,95471.41
2018-09-19T08:22:31.763Z,95472.63
2018-09-19T08:25:00.334Z,95472.46
2018-09-19T08:27:28.995Z,95472.69
2018-09-19T08:29:57.573Z,95461.29
2018-09-19T08:32:26.339Z,95462.20
2018-09-19T08:34:55.043Z,95459.25
2018-09-19T08:37:23.840Z,95465.57
2018-09-19T08:39:52.666Z,95458.05
2018-09-19T08:42:21.415Z,95460.45
2018-09-19T08:44:50.142Z,95458.22
2018-09-19T08:47:18.795Z,95459.95
2018-09-19T08:49:47.496Z,95456.70
2018-09-19T08:52:16.143Z,95453.54
2018-09-19T08:54:44.894Z,95458.13
2018-09-19T08:57:13.616Z,95448.56
2018-09-19T08:59:42.327Z,95447.76
2018-09-19T09:02:11.099Z,95444.59
2018-09-19T09:04:39.727Z,95442.33
2018-09-19T09:07:08.545Z,95437.61
2018-09-19T09:09:37.342Z,95437.03
2018-09-19T09:12:06.117Z,95439.38
2018-09-19T09:14:34.692Z,95435.33
2018-09-19T09:17:03.395Z,95434.25
2018-09-19T09:19:32.134Z,95422.38
2018-09-19T09:22:00.726Z,95422.03
2018-09-19T09:24:29.331Z,95420.37
2018-09-19T09:26:58.034Z,95420.83
2018-09-19T09:29:26.586Z,95408.98
2018-09-19T09:31:55.391Z,95415.23
2018-09-19T09:34:24.117Z,95417.86
2018-09-19T09:36:52.757Z,95414.17
2018-09-19T09:39:21.477Z,95411.59
2018-09-19T09:41:50.494Z,95403.17
2018-09-19T09:44:19.231Z,95404.77
2018-09-19T09:46:48.181Z,95405.52
2018-09-19T09:49:17.348Z,95401.59
2018-09-19T09:51:46.272Z,95395.86
2018-09-19T09:54:15.034Z,95393.44
2018-09-19T09:56:43.738Z,95395.31
2018-09-19T09:59:12.508Z,95395.07
2018-09-19T10:01:41.227Z,95393.80
2018-09-19T10:04:10.224Z,95395.83
2018-09-19T10:06:38.803Z,95394.07
2018-09-19T10:09:08.509Z,95391.25
2018-09-19T10:11:37.323Z,95384.24
2018-09-19T10:14:06.195Z,95384.78
2018-09-19T10:16:35.037Z,95388.61
2018-09-19T10:19:04.178Z,95382.19
2018-09-19T10:21:33.109Z,95325.59
2018-09-19T10:24:01.822Z,95371.72
2018-09-19T10:26:30.675Z,95366.94
2018-09-19T10:28:59.559Z,95370.51
2018-09-19T10:31:28.215Z,95368.50
2018-09-19T10:33:56.832Z,95364.88
2018-09-19T10:36:25.500Z,95366.56
2018-09-19T10:38:54.432Z,95359.03
2018-09-19T10:41:23.319Z,95357.92
2018-09-19T10:43:52.430Z,95351.58
2018-09-19T10:46:21.267Z,95356.67
2018-09-19T10:48:50.083Z,95349.66
2018-09-19T10:51:19.045Z,95349.48
2018-09-19T10:53:47.753Z,95345.01
2018-09-19T10:56:16.521Z,95337.55
2018-09-19T10:58:45.296Z,95343.47
2018-09-19T11:01:14.352Z,95339.90
2018-09-19T11:03:43.490Z,95335.49
2018-09-19T11:06:12.407Z,95334.17
2018-09-19T11:08:41.457Z,95328.75
2018-09-19T11:11:10.703Z,95324.78
2018-09-19T11:13:39.605Z,95324.03
2018-09-19T11:16:08.642Z,95317.31
2018-09-19T11:18:37.659Z,95316.41
2018-09-19T11:21:06.868Z,95312.66
2018-09-19T11:23:35.625Z,95314.66
2018-09-19T11:26:04.275Z,95292.20
2018-09-19T11:28:33.163Z,95307.41
2018-09-19T11:31:01.814Z,95304.13
2018-09-19T11:33:30.546Z,95298.97
2018-09-19T11:35:59.467Z,95303.11
2018-09-19T11:38:28.369Z,95306.23
2018-09-19T11:40:57.115Z,95308.36
2018-09-19T11:43:25.924Z,95302.77
2018-09-19T11:45:55.071Z,95304.45
2018-09-19T11:48:24.059Z,95291.76
2018-09-19T11:50:53.141Z,95288.64
2018-09-19T11:53:27.135Z,95290.66
2018-09-19T11:55:56.629Z,95279.49
2018-09-19T11:58:25.421Z,95280.58
2018-09-19T12:00:54.205Z,95278.71
2018-09-19T12:03:23.133Z,95277.07
2018-09-19T12:05:51.948Z,95279.52
2018-09-19T12:08:21.359Z,95270.38
2018-09-19T12:10:50.591Z,95269.66
2018-09-19T12:13:19.505Z,95267.94
2018-09-19T12:15:48.270Z,95263.75
2018-09-19T12:18:17.390Z,95256.48
2018-09-19T12:20:46.251Z,95256.95
2018-09-19T12:23:14.838Z,95256.95
2018-09-19T12:25:43.438Z,95253.11
2018-09-19T12:28:12.539Z,95249.08
2018-09-19T12:30:41.439Z,95244.28
2018-09-19T12:33:10.094Z,95244.00
2018-09-19T12:35:38.891Z,95243.07
2018-09-19T12:38:07.987Z,95237.33
2018-09-19T12:40:37.076Z,95229.14
2018-09-19T12:43:06.230Z,95227.90
2018-09-19T12:45:35.030Z,95221.07
2018-09-19T12:48:03.870Z,95230.54
2018-09-19T12:50:32.691Z,95234.96
2018-09-19T12:53:01.481Z,95232.47
2018-09-19T12:55:31.282Z,95227.03
2018-09-19T12:58:00.207Z,95226.91
2018-09-19T13:00:28.942Z,95217.98
2018-09-19T13:02:57.975Z,95227.38
2018-09-19T13:05:27.807Z,95217.00
2018-09-19T13:07:56.644Z,95210.53
2018-09-19T13:10:25.612Z,95206.11
2018-09-19T13:12:54.633Z,95210.16
2018-09-19T13:15:23.542Z,95203.03
2018-09-19T13:17:52.207Z,95205.69
2018-09-19T13:20:21.111Z,95201.03
2018-09-19T13:22:49.782Z,95200.26
2018-09-19T13:25:18.494Z,95195.90
2018-09-19T13:27:47.631Z,95191.01
2018-09-19T13:30:16.463Z,95194.39
2018-09-19T13:32:45.503Z,95190.70
2018-09-19T13:35:14.563Z,95183.64
2018-09-19T13:37:43.552Z,95183.59
2018-09-19T13:40:12.507Z,95183.39
2018-09-19T13:42:41.567Z,95183.77
2018-09-19T13:45:10.726Z,95184.70
2018-09-19T13:47:39.579Z,95178.16
2018-09-19T13:52:14.878Z,95181.61
2018-09-19T13:54:43.554Z,95172.42
2018-09-19T13:57:12.435Z,95178.23
2018-09-19T13:59:41.506Z,95175.61
2018-09-19T14:02:10.753Z,95172.84
2018-09-19T14:04:40.071Z,95174.03
2018-09-19T14:07:08.943Z,95174.71
2018-09-19T14:09:37.771Z,95175.11
2018-09-19T14:12:06.279Z,95179.16
2018-09-19T14:14:35.503Z,95172.97
2018-09-19T14:17:04.515Z,95179.94
2018-09-19T14:19:33.351Z,95183.37
2018-09-19T14:22:02.109Z,95168.91
2018-09-19T14:24:31.147Z,95173.56
2018-09-19T14:26:59.771Z,95169.28
2018-09-19T14:29:28.978Z,95176.16
2018-09-19T14:31:58.174Z,95177.37
2018-09-19T14:34:27.107Z,95165.52
2018-09-19T14:36:56.229Z,95167.88
2018-09-19T14:39:25.121Z,95163.50
2018-09-19T14:41:53.908Z,95161.70
2018-09-19T14:44:23.068Z,95159.16
2018-09-19T14:46:51.758Z,95161.17
2018-09-19T14:49:20.437Z,95159.33
2018-09-19T14:51:49.164Z,95159.61
2018-09-19T14:54:18.122Z,95159.02
2018-09-19T14:56:47.166Z,95160.25
2018-09-19T14:59:16.473Z,95160.92
2018-09-19T15:01:45.495Z,95158.62
2018-09-19T15:04:14.394Z,95153.17
2018-09-19T15:06:43.331Z,95161.42
2018-09-19T15:09:12.549Z,95161.77
2018-09-19T15:11:41.594Z,95163.64
2018-09-19T15:14:10.538Z,95163.09
2018-09-19T15:16:39.193Z,95168.81
2018-09-19T15:19:07.891Z,95174.52
2018-09-19T15:21:36.487Z,95179.78
2018-09-19T15:24:05.263Z,95174.88
2018-09-19T15:26:34.152Z,95179.95
2018-09-19T15:29:02.915Z,95171.59
2018-09-19T15:31:31.789Z,95176.76
2018-09-19T15:34:00.731Z,95177.34
2018-09-19T15:36:29.870Z,95180.00
2018-09-19T15:38:58.926Z,95182.56
2018-09-19T15:41:27.880Z,95179.09
2018-09-19T15:43:56.982Z,95178.66
2018-09-19T15:46:25.668Z,95181.26
2018-09-19T15:48:54.318Z,95182.66
2018-09-19T15:51:22.933Z,95187.00
2018-09-19T15:53:51.731Z,95179.17
2018-09-19T15:56:20.925Z,95179.43
2018-09-19T15:58:49.786Z,95177.31
2018-09-19T16:01:18.718Z,95188.48
2018-09-19T16:03:47.437Z,95182.27
2018-09-19T16:06:16.351Z,95189.75
2018-09-19T16:08:45.503Z,95187.81
2018-09-19T16:11:14.779Z,95199.57
2018-09-19T16:13:43.788Z,95198.58
2018-09-19T16:16:12.476Z,95195.20
2018-09-19T16:18:41.115Z,95202.39
2018-09-19T16:21:10.269Z,95193.89
2018-09-19T16:23:39.250Z,95132.78
2018-09-19T16:26:08.265Z,95203.27
2018-09-19T16:28:37.666Z,95200.22
2018-09-19T16:31:07.057Z,95206.57
2018-09-19T16:33:36.068Z,95204.42
2018-09-19T16:36:05.138Z,95205.91
2018-09-19T16:38:34.035Z,95210.83
2018-09-19T16:41:02.814Z,95209.86
2018-09-19T16:43:32.065Z,95205.02
2018-09-19T16:46:00.835Z,95208.28
2018-09-19T16:48:29.637Z,95210.39
2018-09-19T16:50:58.610Z,95210.91
2018-09-19T16:53:27.879Z,95214.19
2018-09-19T16:55:57.228Z,95215.31
2018-09-19T16:58:26.349Z,95223.30
2018-09-19T17:00:55.512Z,95161.11
2018-09-19T17:03:24.400Z,95232.69
2018-09-19T17:05:53.320Z,95238.13
2018-09-19T17:08:22.001Z,95234.94
2018-09-19T17:10:50.864Z,95240.44
2018-09-19T17:13:19.740Z,95239.34
2018-09-19T17:15:48.442Z,95250.23
2018-09-19T17:18:17.088Z,95249.31
2018-09-19T17:20:46.033Z,95254.20
2018-09-19T17:23:14.923Z,95256.80
2018-09-19T17:25:43.832Z,95263.06
2018-09-19T17:28:12.951Z,95267.09
2018-09-19T17:30:42.204Z,95275.39
2018-09-19T17:33:11.498Z,95278.12
2018-09-19T17:35:40.592Z,95279.88
2018-09-19T17:38:09.930Z,95281.66
2018-09-19T17:40:39.167Z,95281.86
2018-09-19T17:43:08.011Z,95289.30
2018-09-19T17:45:36.684Z,95292.14
2018-09-19T17:48:05.395Z,95291.19
2018-09-19T17:50:34.407Z,95298.91
2018-09-19T17:53:03.218Z,95299.16
2018-09-19T17:55:32.170Z,95299.30
2018-09-19T17:58:01.291Z,95301.22
2018-09-19T18:00:30.223Z,95301.34
2018-09-19T18:02:59.308Z,95298.33
2018-09-19T18:05:28.214Z,95303.20
2018-09-19T18:07:57.283Z,95304.40
2018-09-19T18:10:26.387Z,95312.91
2018-09-19T18:12:55.145Z,95306.52
2018-09-19T18:15:23.775Z,95317.08
2018-09-19T18:17:52.525Z,95312.52
2018-09-19T18:20:21.378Z,95315.22
2018-09-19T18:22:50.238Z,95309.29
2018-09-19T18:25:19.107Z,95313.34
2018-09-19T18:27:48.064Z,95316.16
2018-09-19T18:30:17.215Z,95321.02
2018-09-19T18:32:45.925Z,95315.89
2018-09-19T18:35:14.892Z,95323.59
2018-09-19T18:37:43.802Z,95317.99
2018-09-19T18:40:12.621Z,95316.81
2018-09-19T18:42:41.398Z,95319.06
2018-09-19T18:45:10.072Z,95320.05
2018-09-19T18:47:38.891Z,95325.97
2018-09-19T18:50:07.733Z,95327.00
2018-09-19T18:52:36.362Z,95331.68
2018-09-19T18:55:05.692Z,95334.72
2018-09-19T18:57:34.447Z,95330.92
2018-09-19T19:00:03.478Z,95329.28
2018-09-19T19:02:32.587Z,95330.81
2018-09-19T19:05:01.342Z,95331.47
2018-09-19T19:07:30.319Z,95332.88
2018-09-19T19:09:59.043Z,95333.66
2018-09-19T19:12:28.039Z,95336.69
2018-09-19T19:14:57.413Z,95340.41
2018-09-19T19:17:26.526Z,95334.78
2018-09-19T19:19:55.539Z,95344.66
2018-09-19T19:22:24.254Z,95338.67
2018-09-19T19:24:53.100Z,95342.98
2018-09-19T19:27:22.275Z,95334.50
2018-09-19T19:29:51.213Z,95338.95
2018-09-19T19:32:20.129Z,95335.97
2018-09-19T19:34:48.923Z,95341.05
2018-09-19T19:37:17.822Z,95335.17
2018-09-19T19:39:46.793Z,95333.48
2018-09-19T19:42:15.434Z,95333.48
2018-09-19T19:44:44.142Z,95336.81
2018-09-19T19:47:13.123Z,95336.87
2018-09-19T19:49:42.158Z,95343.37
2018-09-19T19:52:11.254Z,95339.09
2018-09-19T19:54:40.269Z,95339.34
2018-09-19T19:57:09.379Z,95339.62
2018-09-19T19:59:38.539Z,95340.47
2018-09-19T20:02:07.463Z,95339.45
2018-09-19T20:04:36.109Z,95340.03
2018-09-19T20:07:05.286Z,95334.52
2018-09-19T20:09:34.325Z,95334.83
2018-09-19T20:12:03.030Z,95332.76
2018-09-19T20:14:31.642Z,95339.20
2018-09-19T20:17:00.343Z,95338.45
2018-09-19T20:19:29.234Z,95338.45
2018-09-19T20:21:58.182Z,95333.77
2018-09-19T20:24:27.158Z,95339.20
2018-09-19T20:26:56.005Z,95340.48
2018-09-19T20:29:24.999Z,95333.89
2018-09-19T20:31:54.011Z,95342.44
2018-09-19T20:34:23.024Z,95344.30
2018-09-19T20:36:51.882Z,95338.53
2018-09-19T20:39:20.455Z,95334.56
2018-09-19T20:41:49.085Z,95338.25
2018-09-19T20:44:17.827Z,95338.78
2018-09-19T20:46:46.623Z,95334.28
2018-09-19T20:49:15.438Z,95338.19
2018-09-19T20:51:44.266Z,95335.23
2018-09-19T20:54:13.552Z,95337.86
2018-09-19T20:56:42.814Z,95344.06
2018-09-19T20:59:11.674Z,95349.66
2018-09-19T21:01:40.907Z,95347.17
2018-09-19T21:04:09.638Z,95347.85
2018-09-19T21:06:38.575Z,95347.80
2018-09-19T21:09:07.495Z,95346.19
2018-09-19T21:11:36.336Z,95347.98
2018-09-19T21:14:05.050Z,95346.34
2018-09-19T21:16:33.930Z,95348.53
2018-09-19T21:19:02.634Z,95356.09
2018-09-19T21:21:31.781Z,95348.45
2018-09-19T21:24:00.690Z,95346.58
2018-09-19T21:26:29.505Z,95343.41
2018-09-19T21:28:58.630Z,95343.64
2018-09-19T21:31:27.616Z,95350.04
2018-09-19T21:33:57.411Z,95353.37
2018-09-19T21:36:26.281Z,95356.45
2018-09-19T21:38:54.912Z,95356.03
2018-09-19T21:41:23.591Z,95359.41
2018-09-19T21:43:52.427Z,95358.02
2018-09-19T21:46:21.496Z,95358.00
2018-09-19T21:48:50.278Z,95361.22
2018-09-19T21:51:19.242Z,95354.58
2018-09-19T21:53:48.010Z,95352.33
2018-09-19T21:56:16.847Z,95354.71
2018-09-19T21:58:45.813Z,95354.02
2018-09-19T22:01:14.781Z,95350.15
2018-09-19T22:03:43.634Z,95348.48
2018-09-19T22:06:12.510Z,95343.46
2018-09-19T22:08:41.287Z,95345.58
2018-09-19T22:11:09.943Z,95348.48
2018-09-19T22:13:38.606Z,95350.07
2018-09-19T22:16:07.301Z,95350.01
2018-09-19T22:18:36.490Z,95343.95
2018-09-19T22:21:05.473Z,95344.78
2018-09-19T22:23:34.428Z,95342.15
2018-09-19T22:26:03.269Z,95346.86
2018-09-19T22:28:32.318Z,95340.01
2018-09-19T22:31:01.199Z,95346.45
2018-09-19T22:33:29.888Z,95338.27
2018-09-19T22:35:58.673Z,95333.41
2018-09-19T22:38:27.734Z,95344.10
2018-09-19T22:40:56.574Z,95335.70
2018-09-19T22:43:25.392Z,95335.34
2018-09-19T22:45:54.259Z,95340.44
2018-09-19T22:48:23.181Z,95342.84
2018-09-19T22:50:52.188Z,95343.63
2018-09-19T22:53:21.094Z,95346.11
2018-09-19T22:55:49.853Z,95344.23
2018-09-19T22:58:18.839Z,95345.98
2018-09-19T23:00:48.081Z,95349.08
2018-09-19T23:03:16.951Z,95344.92
2018-09-19T23:05:45.859Z,95347.85
2018-09-19T23:08:14.719Z,95342.30
2018-09-19T23:10:43.375Z,95335.86
2018-09-19T23:13:12.127Z,95332.03
2018-09-19T23:15:41.159Z,95333.31
2018-09-19T23:18:10.490Z,95327.52
2018-09-19T23:20:39.654Z,95324.95
2018-09-19T23:23:08.815Z,95321.00
2018-09-19T23:25:37.930Z,95320.72
2018-09-19T23:28:06.814Z,95322.03
2018-09-19T23:30:35.660Z,95327.80
2018-09-19T23:33:04.606Z,95328.13
2018-09-19T23:35:33.474Z,95329.09
2018-09-19T23:38:02.401Z,95324.89
2018-09-19T23:40:31.214Z,95335.09
2018-09-19T23:42:59.858Z,95328.09
2018-09-19T23:45:28.705Z,95327.06
2018-09-19T23:47:57.804Z,95338.52
2018-09-19T23:50:26.904Z,95333.17
2018-09-19T23:52:55.728Z,95335.20
2018-09-19T23:55:24.580Z,95338.11
2018-09-19T23:57:53.493Z,95336.95
